Time;durP1;ratioP1;P1;durP2;ratioP2;P2;SDS_P1;SDS_P2;PMS_P1;PMS_P2;Temp;Humidity;BMP_temperature;BMP_pressure;BME280_temperature;BME280_humidity;BME280_pressure;Samples;Min_cycle;Max_cycle;Signal;HPM_P1;HPM_P2
2024/01/27 09:48:05;;;;;;;;;46.00;39.00;;;;;;;;5084037;28;13514;-72
2024/01/27 09:50:30;;;;;;;;;41.67;36.33;;;;;;;;5086340;28;8826;-70
2024/01/27 09:52:55;;;;;;;;;39.00;34.67;;;;;;;;5085780;28;8798;-70
2024/01/27 09:55:21;;;;;;;;;39.50;32.50;;;;;;;;5085925;28;8810;-70
2024/01/27 09:57:46;;;;;;;;;40.00;34.50;;;;;;;;5086031;28;8834;-68
2024/01/27 10:00:12;;;;;;;;;45.75;36.75;;;;;;;;5078921;28;8894;-69
2024/01/27 10:02:42;;;;;;;;;38.50;30.25;;;;;;;;5065996;28;8848;-67
2024/01/27 10:05:11;;;;;;;;;40.75;35.25;;;;;;;;5065932;28;8801;-69
2024/01/27 10:07:37;;;;;;;;;38.50;32.75;;;;;;;;5066265;28;11606;-69
2024/01/27 10:10:03;;;;;;;;;41.00;36.25;;;;;;;;5065444;28;11539;-69
2024/01/27 10:12:29;;;;;;;;;38.75;33.75;;;;;;;;5066703;28;11588;-68
2024/01/27 10:14:54;;;;;;;;;37.00;33.25;;;;;;;;5066788;28;8866;-69
2024/01/27 10:17:20;;;;;;;;;39.50;30.25;;;;;;;;5066633;28;8793;-69
2024/01/27 10:19:45;;;;;;;;;41.50;35.25;;;;;;;;5065160;28;8833;-69
2024/01/27 10:22:11;;;;;;;;;39.75;36.75;;;;;;;;5067072;28;11811;-69
2024/01/27 10:24:36;;;;;;;;;37.25;36.25;;;;;;;;5067419;28;8793;-69
2024/01/27 10:27:03;;;;;;;;;34.75;33.50;;;;;;;;5066894;28;8915;-69
2024/01/27 10:29:28;;;;;;;;;47.50;41.00;;;;;;;;5067227;28;8789;-69
2024/01/27 10:31:53;;;;;;;;;122.75;111.50;;;;;;;;5066944;28;11500;-69
2024/01/27 10:34:22;;;;;;;;;65.67;52.00;;;;;;;;5066799;28;8797;-68
2024/01/27 10:36:47;;;;;;;;;41.00;37.00;;;;;;;;5066619;28;8786;-68
2024/01/27 10:39:16;;;;;;;;;40.75;37.00;;;;;;;;5066877;28;11526;-68
2024/01/27 10:41:44;;;;;;;;;32.25;32.25;;;;;;;;5066804;28;8807;-68
2024/01/27 10:44:12;;;;;;;;;41.50;37.00;;;;;;;;5066575;28;11536;-68
2024/01/27 10:46:37;;;;;;;;;59.25;48.75;;;;;;;;5066212;28;11539;-68
2024/01/27 10:49:05;;;;;;;;;45.00;32.50;;;;;;;;5079783;28;11564;-68
2024/01/27 10:51:32;;;;;;;;;38.00;36.75;;;;;;;;5086747;28;8917;-69
2024/01/27 10:54:03;;;;;;;;;33.75;31.25;;;;;;;;5086553;28;11496;-69
2024/01/27 10:56:33;;;;;;;;;38.50;31.00;;;;;;;;5085262;28;11516;-68
2024/01/27 10:58:59;;;;;;;;;35.25;32.50;;;;;;;;5075538;28;11513;-69
2024/01/27 11:01:24;;;;;;;;;37.25;31.75;;;;;;;;5073151;28;11521;-70
2024/01/27 11:03:52;;;;;;;;;33.75;32.00;;;;;;;;5071656;28;11532;-69
2024/01/27 11:06:18;;;;;;;;;31.50;31.50;;;;;;;;5072877;28;8892;-70
2024/01/27 11:08:44;;;;;;;;;35.00;30.75;;;;;;;;5072995;28;11522;-69
2024/01/27 11:11:10;;;;;;;;;37.00;30.50;;;;;;;;5072785;28;11535;-69
2024/01/27 11:13:36;;;;;;;;;30.00;28.50;;;;;;;;5072891;28;8830;-69
2024/01/27 11:16:01;;;;;;;;;31.25;28.50;;;;;;;;5072986;28;8821;-71
2024/01/27 11:18:27;;;;;;;;;39.00;33.50;;;;;;;;5085757;22;11590;-70
2024/01/27 11:20:53;;;;;;;;;31.00;29.50;;;;;;;;5073363;28;8810;-70
2024/01/27 11:23:19;;;;;;;;;34.25;32.00;;;;;;;;5073129;28;8801;-70
2024/01/27 11:25:45;;;;;;;;;32.00;28.25;;;;;;;;5071509;28;11476;-69
2024/01/27 11:28:14;;;;;;;;;29.50;26.25;;;;;;;;5072973;28;8837;-70
2024/01/27 11:30:44;;;;;;;;;30.75;30.50;;;;;;;;5072879;28;10819;-71
2024/01/27 11:33:10;;;;;;;;;34.50;31.00;;;;;;;;5072593;28;10911;-70
2024/01/27 11:35:35;;;;;;;;;36.75;33.50;;;;;;;;5072710;28;10640;-70
2024/01/27 11:38:01;;;;;;;;;30.50;29.00;;;;;;;;5072946;28;8852;-70
2024/01/27 11:40:26;;;;;;;;;28.25;26.25;;;;;;;;5072659;28;9645;-70
2024/01/27 11:43:12;;;;;;;;;36.75;31.75;;;;;;;;5072584;28;8787;-72
2024/01/27 11:45:38;;;;;;;;;28.33;27.67;;;;;;;;5071018;28;8831;-71
2024/01/27 11:48:03;;;;;;;;;30.67;30.33;;;;;;;;5071402;28;9131;-73
2024/01/27 11:50:29;;;;;;;;;37.50;31.00;;;;;;;;5072489;28;8779;-72
2024/01/27 11:52:54;;;;;;;;;34.25;31.00;;;;;;;;5068522;28;8847;-71
2024/01/27 11:55:19;;;;;;;;;28.00;27.50;;;;;;;;5072129;28;9019;-70
2024/01/27 11:57:45;;;;;;;;;29.50;28.75;;;;;;;;5070276;28;8831;-71
2024/01/27 12:00:13;;;;;;;;;24.25;20.75;;;;;;;;5072318;28;8844;-72
2024/01/27 12:02:38;;;;;;;;;28.75;24.50;;;;;;;;5071988;28;8803;-70
2024/01/27 12:05:05;;;;;;;;;26.75;24.00;;;;;;;;5071468;28;10803;-72
2024/01/27 12:07:31;;;;;;;;;27.75;24.75;;;;;;;;5069414;28;8926;-71
2024/01/27 12:09:56;;;;;;;;;29.75;27.25;;;;;;;;5070860;28;10916;-72
2024/01/27 12:12:21;;;;;;;;;30.00;26.50;;;;;;;;5072186;28;8817;-71
2024/01/27 12:14:48;;;;;;;;;27.00;23.75;;;;;;;;5071122;28;8795;-70
2024/01/27 12:17:14;;;;;;;;;32.00;28.50;;;;;;;;5071770;28;8903;-71
2024/01/27 12:19:45;;;;;;;;;29.75;28.50;;;;;;;;5069382;28;11459;-72
2024/01/27 12:22:21;;;;;;;;;29.75;27.00;;;;;;;;5069595;28;13511;-78
2024/01/27 12:24:48;;;;;;;;;38.50;34.00;;;;;;;;5071223;28;11446;-80
2024/01/27 12:27:15;;;;;;;;;32.25;29.25;;;;;;;;5071553;28;11509;-83
2024/01/27 12:29:41;;;;;;;;;33.50;29.75;;;;;;;;5069553;28;11449;-81
2024/01/27 12:32:06;;;;;;;;;34.75;31.25;;;;;;;;5071448;28;11529;-82
2024/01/27 12:34:31;;;;;;;;;31.75;30.00;;;;;;;;5070788;28;8818;-81
2024/01/27 12:36:57;;;;;;;;;39.50;33.00;;;;;;;;5071252;28;8802;-81
2024/01/27 12:39:22;;;;;;;;;33.25;28.75;;;;;;;;5069634;28;8921;-81
2024/01/27 12:41:48;;;;;;;;;33.75;33.00;;;;;;;;5071442;28;8892;-81
2024/01/27 12:44:13;;;;;;;;;28.50;28.50;;;;;;;;5071078;28;8862;-82
2024/01/27 12:46:38;;;;;;;;;39.50;37.00;;;;;;;;5071006;28;8907;-77
2024/01/27 12:49:04;;;;;;;;;38.25;32.50;;;;;;;;5069315;28;8794;-77
2024/01/27 12:51:29;;;;;;;;;35.25;34.00;;;;;;;;5070698;28;9360;-78
2024/01/27 12:53:54;;;;;;;;;30.50;29.75;;;;;;;;5070808;28;8802;-78
2024/01/27 12:56:20;;;;;;;;;31.25;30.00;;;;;;;;5071074;28;9544;-78
2024/01/27 12:58:45;;;;;;;;;37.25;31.75;;;;;;;;5068972;28;8829;-78
2024/01/27 13:01:11;;;;;;;;;36.00;34.25;;;;;;;;5070911;28;8897;-78
2024/01/27 13:03:36;;;;;;;;;34.75;31.00;;;;;;;;5070343;28;9540;-78
2024/01/27 13:06:02;;;;;;;;;35.25;33.00;;;;;;;;5070288;28;8857;-78
2024/01/27 13:08:27;;;;;;;;;29.75;27.50;;;;;;;;5068300;28;8807;-79
2024/01/27 13:10:53;;;;;;;;;39.25;35.25;;;;;;;;5068953;28;8811;-80
2024/01/27 13:13:18;;;;;;;;;36.00;32.00;;;;;;;;5068345;28;8882;-78
2024/01/27 13:15:44;;;;;;;;;31.25;27.50;;;;;;;;5069456;28;8817;-78
2024/01/27 13:18:10;;;;;;;;;39.25;34.75;;;;;;;;5067236;28;8932;-78
2024/01/27 13:20:35;;;;;;;;;31.00;30.00;;;;;;;;5070473;28;8806;-79
2024/01/27 13:23:00;;;;;;;;;37.50;33.25;;;;;;;;5070309;28;8884;-78
2024/01/27 13:25:26;;;;;;;;;33.00;30.25;;;;;;;;5070146;28;8877;-78
2024/01/27 13:27:51;;;;;;;;;39.00;33.25;;;;;;;;5068574;28;8845;-79
2024/01/27 13:30:19;;;;;;;;;37.50;32.50;;;;;;;;5070545;28;8794;-78
2024/01/27 13:32:44;;;;;;;;;40.00;36.50;;;;;;;;5070535;28;8803;-77
2024/01/27 13:35:10;;;;;;;;;20.75;20.25;;;;;;;;5069742;28;11631;-76
2024/01/27 13:37:35;;;;;;;;;27.50;24.50;;;;;;;;5069274;28;8802;-75
2024/01/27 13:40:01;;;;;;;;;29.75;26.00;;;;;;;;5070400;28;8794;-75
2024/01/27 13:42:26;;;;;;;;;25.75;25.00;;;;;;;;5070406;28;8794;-75
2024/01/27 13:44:51;;;;;;;;;33.50;27.25;;;;;;;;5068696;28;8829;-76
2024/01/27 13:47:17;;;;;;;;;28.50;25.50;;;;;;;;5070312;28;8818;-75
2024/01/27 13:49:43;;;;;;;;;29.25;28.25;;;;;;;;5068371;28;8811;-75
2024/01/27 13:52:08;;;;;;;;;29.00;25.25;;;;;;;;5070118;28;8913;-75
2024/01/27 13:54:34;;;;;;;;;27.25;25.00;;;;;;;;5068784;28;8834;-76
2024/01/27 13:57:00;;;;;;;;;34.00;25.50;;;;;;;;5070095;28;8821;-75
2024/01/27 13:59:25;;;;;;;;;38.75;27.00;;;;;;;;5068375;28;11455;-78
2024/01/27 14:01:51;;;;;;;;;35.25;30.25;;;;;;;;5070279;28;8803;-78
2024/01/27 14:04:16;;;;;;;;;36.50;33.75;;;;;;;;5068316;28;9583;-75
2024/01/27 14:06:41;;;;;;;;;33.75;26.75;;;;;;;;5068464;28;8854;-75
2024/01/27 14:09:07;;;;;;;;;28.75;27.25;;;;;;;;5068308;28;8795;-75
2024/01/27 14:11:32;;;;;;;;;29.25;29.25;;;;;;;;5068730;28;8810;-76
2024/01/27 14:13:57;;;;;;;;;26.25;25.25;;;;;;;;5069667;28;8895;-76
2024/01/27 14:16:23;;;;;;;;;29.75;26.25;;;;;;;;5069822;28;8795;-76
2024/01/27 14:18:48;;;;;;;;;34.50;29.75;;;;;;;;5066649;28;8830;-76
2024/01/27 14:21:14;;;;;;;;;33.25;28.00;;;;;;;;5069849;28;9597;-75
2024/01/27 14:23:39;;;;;;;;;31.00;25.25;;;;;;;;5069524;28;8935;-76
2024/01/27 14:26:07;;;;;;;;;30.25;29.75;;;;;;;;5069712;28;11510;-77
2024/01/27 14:28:33;;;;;;;;;30.00;26.25;;;;;;;;5068094;28;8762;-76
2024/01/27 14:30:58;;;;;;;;;28.25;26.00;;;;;;;;5069838;28;11442;-76
2024/01/27 14:33:23;;;;;;;;;29.00;26.00;;;;;;;;5069432;28;8841;-76
2024/01/27 14:35:49;;;;;;;;;26.00;23.50;;;;;;;;5072159;28;9563;-75
2024/01/27 14:38:14;;;;;;;;;27.75;26.50;;;;;;;;5071869;28;8814;-75
2024/01/27 14:40:40;;;;;;;;;36.00;30.00;;;;;;;;5071719;28;8826;-76
2024/01/27 14:43:09;;;;;;;;;33.25;28.75;;;;;;;;5073511;28;8791;-76
2024/01/27 14:45:35;;;;;;;;;37.50;31.00;;;;;;;;5072946;28;8837;-76
2024/01/27 14:48:01;;;;;;;;;30.25;27.25;;;;;;;;5071361;28;11682;-75
2024/01/27 14:50:26;;;;;;;;;31.75;27.00;;;;;;;;5073114;28;8798;-75
2024/01/27 14:52:52;;;;;;;;;34.00;27.00;;;;;;;;5072093;28;8853;-75
2024/01/27 14:55:17;;;;;;;;;34.50;27.25;;;;;;;;5070616;28;8865;-76
2024/01/27 14:57:43;;;;;;;;;27.00;27.00;;;;;;;;5070132;28;8842;-75
2024/01/27 15:00:09;;;;;;;;;25.50;21.50;;;;;;;;5072702;28;8798;-76
2024/01/27 15:02:34;;;;;;;;;29.50;26.75;;;;;;;;5072028;28;8811;-76
2024/01/27 15:05:00;;;;;;;;;26.50;23.75;;;;;;;;5071631;28;12315;-77
2024/01/27 15:07:29;;;;;;;;;31.00;28.25;;;;;;;;5071229;28;8860;-75
2024/01/27 15:09:54;;;;;;;;;25.75;23.25;;;;;;;;5056674;28;8807;-75
2024/01/27 15:12:20;;;;;;;;;27.25;23.25;;;;;;;;5072524;28;11662;-75
2024/01/27 15:14:45;;;;;;;;;27.00;25.75;;;;;;;;5070613;28;8912;-75
2024/01/27 15:17:11;;;;;;;;;30.50;22.75;;;;;;;;5072396;28;8819;-75
2024/01/27 15:19:36;;;;;;;;;34.00;27.50;;;;;;;;5069262;28;8850;-75
2024/01/27 15:22:02;;;;;;;;;28.75;27.50;;;;;;;;5071396;28;11555;-75
2024/01/27 15:24:27;;;;;;;;;33.50;28.00;;;;;;;;5072499;28;9531;-75
2024/01/27 15:26:53;;;;;;;;;32.25;27.25;;;;;;;;5072815;28;8834;-75
2024/01/27 15:29:18;;;;;;;;;32.75;26.75;;;;;;;;5071021;28;8798;-75
2024/01/27 15:31:43;;;;;;;;;28.50;26.75;;;;;;;;5072757;28;8801;-74
2024/01/27 15:34:08;;;;;;;;;30.75;27.25;;;;;;;;5072196;28;8791;-74
2024/01/27 15:36:34;;;;;;;;;32.00;27.00;;;;;;;;5072478;28;8798;-75
2024/01/27 15:39:00;;;;;;;;;30.50;26.00;;;;;;;;5070491;28;8811;-75
2024/01/27 15:41:26;;;;;;;;;31.25;26.50;;;;;;;;5071678;28;8791;-75
2024/01/27 15:43:51;;;;;;;;;32.25;27.50;;;;;;;;5071604;28;11503;-74
2024/01/27 15:46:16;;;;;;;;;30.75;26.50;;;;;;;;5072397;28;8872;-76
2024/01/27 15:48:42;;;;;;;;;31.75;26.50;;;;;;;;5071966;28;9472;-80
2024/01/27 15:51:07;;;;;;;;;27.75;21.25;;;;;;;;5070893;28;8830;-82
2024/01/27 15:53:32;;;;;;;;;29.00;26.00;;;;;;;;5068437;28;8822;-76
2024/01/27 15:55:58;;;;;;;;;30.75;25.75;;;;;;;;5072412;28;8767;-76
2024/01/27 15:58:23;;;;;;;;;34.75;28.50;;;;;;;;5070425;28;8799;-76
2024/01/27 16:00:48;;;;;;;;;31.50;28.25;;;;;;;;5072132;28;9523;-76
2024/01/27 16:03:14;;;;;;;;;30.25;27.25;;;;;;;;5072160;28;8787;-76
2024/01/27 16:05:39;;;;;;;;;27.25;22.75;;;;;;;;5069043;28;8858;-76
2024/01/27 16:08:06;;;;;;;;;34.25;29.25;;;;;;;;5071549;28;8848;-76
2024/01/27 16:10:31;;;;;;;;;32.50;28.50;;;;;;;;5071043;28;9598;-75
2024/01/27 16:12:57;;;;;;;;;35.75;30.00;;;;;;;;5071635;28;11584;-76
2024/01/27 16:15:22;;;;;;;;;34.50;31.25;;;;;;;;5070016;28;8846;-76
2024/01/27 16:17:47;;;;;;;;;31.25;29.25;;;;;;;;5071626;28;8885;-77
2024/01/27 16:20:13;;;;;;;;;39.00;36.25;;;;;;;;5067767;28;8838;-75
2024/01/27 16:22:38;;;;;;;;;43.50;36.50;;;;;;;;5071010;28;8786;-75
2024/01/27 16:25:04;;;;;;;;;38.50;33.75;;;;;;;;5069564;28;8831;-76
2024/01/27 16:27:29;;;;;;;;;33.75;31.00;;;;;;;;5071374;28;8865;-76
2024/01/27 16:29:56;;;;;;;;;32.25;31.75;;;;;;;;5068019;28;9879;-78
2024/01/27 16:32:22;;;;;;;;;35.75;30.75;;;;;;;;5069943;28;8821;-77
2024/01/27 16:34:47;;;;;;;;;33.75;31.00;;;;;;;;5070575;28;11625;-76
2024/01/27 16:37:13;;;;;;;;;37.75;35.00;;;;;;;;5070866;28;8803;-79
2024/01/27 16:39:38;;;;;;;;;36.00;31.25;;;;;;;;5069320;28;8944;-75
2024/01/27 16:42:04;;;;;;;;;38.75;30.00;;;;;;;;5071132;28;8787;-75
2024/01/27 16:44:29;;;;;;;;;37.50;30.00;;;;;;;;5071294;28;8826;-75
2024/01/27 16:46:54;;;;;;;;;34.25;32.00;;;;;;;;5071049;28;8806;-75
2024/01/27 16:49:19;;;;;;;;;36.75;30.50;;;;;;;;5071121;28;8795;-75
2024/01/27 16:51:45;;;;;;;;;34.00;30.00;;;;;;;;5069608;28;8806;-75
2024/01/27 16:54:12;;;;;;;;;41.00;31.00;;;;;;;;5069535;28;8838;-75
2024/01/27 16:56:37;;;;;;;;;25.75;25.00;;;;;;;;5069456;28;9532;-75
2024/01/27 16:59:03;;;;;;;;;41.50;35.50;;;;;;;;5071090;28;11494;-75
2024/01/27 17:01:29;;;;;;;;;36.25;29.75;;;;;;;;5069726;28;8928;-75
2024/01/27 17:03:54;;;;;;;;;37.00;31.75;;;;;;;;5070731;28;11673;-76
2024/01/27 17:06:19;;;;;;;;;34.00;27.00;;;;;;;;5070888;28;8822;-80
2024/01/27 17:08:45;;;;;;;;;33.25;31.50;;;;;;;;5069308;28;8814;-79
2024/01/27 17:11:10;;;;;;;;;38.50;33.00;;;;;;;;5069535;28;8819;-76
2024/01/27 17:13:35;;;;;;;;;41.00;33.50;;;;;;;;5070942;28;8893;-76
2024/01/27 17:16:01;;;;;;;;;35.75;33.25;;;;;;;;5063192;28;8823;-75
2024/01/27 17:18:26;;;;;;;;;37.25;34.50;;;;;;;;5070598;28;8814;-76
2024/01/27 17:20:51;;;;;;;;;39.50;33.50;;;;;;;;5070740;28;8918;-74
2024/01/27 17:23:17;;;;;;;;;38.25;33.00;;;;;;;;5070423;28;8846;-74
2024/01/27 17:25:44;;;;;;;;;42.25;36.75;;;;;;;;5070781;28;8799;-75
2024/01/27 17:28:10;;;;;;;;;44.75;39.25;;;;;;;;5070596;28;8902;-75
2024/01/27 17:30:35;;;;;;;;;37.75;34.00;;;;;;;;5070704;28;11510;-75
2024/01/27 17:33:00;;;;;;;;;42.25;36.50;;;;;;;;5070122;28;8862;-75
2024/01/27 17:35:26;;;;;;;;;42.75;40.00;;;;;;;;5068998;28;9564;-75
2024/01/27 17:37:51;;;;;;;;;45.50;38.25;;;;;;;;5070380;28;8825;-74
2024/01/27 17:40:17;;;;;;;;;38.50;37.00;;;;;;;;5070616;28;8778;-74
2024/01/27 17:42:42;;;;;;;;;41.00;34.50;;;;;;;;5070558;28;9528;-75
2024/01/27 17:45:08;;;;;;;;;33.25;31.00;;;;;;;;5070548;28;8790;-75
2024/01/27 17:47:35;;;;;;;;;59.75;44.00;;;;;;;;5070145;28;8923;-76
2024/01/27 17:50:01;;;;;;;;;52.75;44.00;;;;;;;;5069458;28;8824;-75
2024/01/27 17:52:26;;;;;;;;;55.00;43.25;;;;;;;;5068397;28;11667;-75
2024/01/27 17:54:51;;;;;;;;;47.50;43.00;;;;;;;;5068421;28;9457;-74
2024/01/27 17:57:17;;;;;;;;;60.50;49.75;;;;;;;;5070128;28;8806;-74
2024/01/27 17:59:42;;;;;;;;;65.00;52.33;;;;;;;;5069063;28;8810;-75
2024/01/27 18:02:07;;;;;;;;;59.25;48.50;;;;;;;;5070321;28;8787;-75
2024/01/27 18:04:33;;;;;;;;;49.75;41.00;;;;;;;;5070243;28;8875;-75
2024/01/27 18:06:59;;;;;;;;;53.50;45.50;;;;;;;;5068072;28;8842;-73
2024/01/27 18:09:24;;;;;;;;;58.75;50.25;;;;;;;;5073005;28;9563;-73
2024/01/27 18:11:49;;;;;;;;;58.00;48.00;;;;;;;;5073584;28;8822;-74
2024/01/27 18:14:15;;;;;;;;;61.67;50.00;;;;;;;;5072726;28;8775;-74
2024/01/27 18:16:40;;;;;;;;;59.67;47.67;;;;;;;;5072411;28;8831;-74
2024/01/27 18:19:06;;;;;;;;;57.00;47.50;;;;;;;;5073465;28;8818;-81
2024/01/27 18:21:31;;;;;;;;;48.50;42.25;;;;;;;;5056453;28;8838;-78
2024/01/27 18:23:57;;;;;;;;;45.50;40.50;;;;;;;;5074093;28;8783;-78
2024/01/27 18:26:22;;;;;;;;;49.25;43.25;;;;;;;;5073422;28;8838;-77
2024/01/27 18:28:48;;;;;;;;;51.50;42.50;;;;;;;;5072961;28;8799;-78
2024/01/27 18:31:13;;;;;;;;;50.50;43.50;;;;;;;;5073995;28;9961;-78
2024/01/27 18:33:39;;;;;;;;;51.75;43.25;;;;;;;;5073994;28;8886;-78
2024/01/27 18:36:04;;;;;;;;;54.75;43.25;;;;;;;;5073092;28;8802;-78
2024/01/27 18:38:29;;;;;;;;;56.75;43.75;;;;;;;;5073435;28;8799;-82
2024/01/27 18:40:55;;;;;;;;;55.00;43.00;;;;;;;;5073486;28;8794;-81
2024/01/27 18:43:20;;;;;;;;;60.00;45.75;;;;;;;;5071531;28;8885;-79
2024/01/27 18:45:45;;;;;;;;;53.75;41.75;;;;;;;;5072309;28;8795;-80
2024/01/27 18:48:11;;;;;;;;;57.33;47.33;;;;;;;;5072797;28;9591;-78
2024/01/27 18:50:37;;;;;;;;;59.67;47.00;;;;;;;;5073131;28;8783;-72
2024/01/27 18:53:03;;;;;;;;;51.00;47.00;;;;;;;;5073099;28;8822;-73
2024/01/27 18:55:37;;;;;;;;;54.50;45.50;;;;;;;;5073128;28;11635;-75
2024/01/27 18:58:04;;;;;;;;;51.00;42.75;;;;;;;;5071095;28;8929;-77
2024/01/27 19:00:30;;;;;;;;;53.50;44.00;;;;;;;;5071180;28;11537;-77
2024/01/27 19:02:56;;;;;;;;;61.33;48.33;;;;;;;;5072021;28;11596;-77
2024/01/27 19:05:21;;;;;;;;;50.75;43.50;;;;;;;;5069525;28;11563;-76
2024/01/27 19:07:49;;;;;;;;;55.50;46.00;;;;;;;;5072957;28;11545;-76
2024/01/27 19:10:14;;;;;;;;;58.75;44.25;;;;;;;;5069874;28;8818;-77
2024/01/27 19:12:40;;;;;;;;;61.33;47.00;;;;;;;;5069366;28;11601;-77
2024/01/27 19:15:05;;;;;;;;;56.00;43.67;;;;;;;;5069486;28;8818;-76
2024/01/27 19:17:31;;;;;;;;;59.00;47.75;;;;;;;;5072157;28;8957;-75
2024/01/27 19:19:57;;;;;;;;;58.67;46.33;;;;;;;;5070564;28;8886;-78
2024/01/27 19:22:22;;;;;;;;;63.33;48.33;;;;;;;;5073152;28;8814;-78
2024/01/27 19:24:47;;;;;;;;;66.67;48.67;;;;;;;;5072546;28;11556;-78
2024/01/27 19:27:13;;;;;;;;;63.00;50.00;;;;;;;;5072988;28;8831;-76
2024/01/27 19:29:38;;;;;;;;;71.00;56.00;;;;;;;;5073039;28;8813;-76
2024/01/27 19:32:04;;;;;;;;;69.33;53.67;;;;;;;;5071497;28;8811;-75
2024/01/27 19:34:30;;;;;;;;;62.67;52.33;;;;;;;;5072508;28;8805;-74
2024/01/27 19:36:56;;;;;;;;;60.00;49.67;;;;;;;;5072907;28;8779;-76
2024/01/27 19:39:22;;;;;;;;;68.00;53.00;;;;;;;;5071300;28;8845;-77
2024/01/27 19:41:47;;;;;;;;;65.33;52.00;;;;;;;;5072549;28;8787;-74
2024/01/27 19:44:12;;;;;;;;;67.67;53.33;;;;;;;;5071030;28;8814;-75
2024/01/27 19:46:37;;;;;;;;;73.00;56.00;;;;;;;;5071757;28;8937;-75
2024/01/27 19:49:03;;;;;;;;;65.33;51.67;;;;;;;;5071914;28;8795;-75
2024/01/27 19:51:29;;;;;;;;;65.00;53.33;;;;;;;;5071062;28;8807;-75
2024/01/27 19:53:54;;;;;;;;;66.67;55.67;;;;;;;;5071532;28;9544;-75
2024/01/27 19:56:19;;;;;;;;;74.33;55.67;;;;;;;;5072057;28;8803;-75
2024/01/27 19:58:45;;;;;;;;;72.33;53.00;;;;;;;;5071894;28;8791;-76
2024/01/27 20:01:10;;;;;;;;;72.00;55.00;;;;;;;;5070248;28;8823;-75
2024/01/27 20:03:35;;;;;;;;;79.00;61.33;;;;;;;;5071384;28;9600;-75
2024/01/27 20:06:02;;;;;;;;;65.67;53.67;;;;;;;;5070579;28;8822;-75
2024/01/27 20:08:27;;;;;;;;;68.00;52.33;;;;;;;;5070533;28;8896;-75
2024/01/27 20:10:53;;;;;;;;;66.00;55.67;;;;;;;;5070002;28;9520;-75
2024/01/27 20:13:18;;;;;;;;;68.00;55.00;;;;;;;;5071655;28;8802;-77
2024/01/27 20:15:43;;;;;;;;;67.67;54.33;;;;;;;;5071972;28;8829;-76
2024/01/27 20:18:09;;;;;;;;;73.67;55.00;;;;;;;;5071544;28;9614;-73
2024/01/27 20:20:36;;;;;;;;;72.67;52.67;;;;;;;;5069764;28;8834;-74
2024/01/27 20:23:01;;;;;;;;;66.33;53.00;;;;;;;;5069912;28;8896;-73
2024/01/27 20:25:27;;;;;;;;;58.33;48.67;;;;;;;;5071228;28;8826;-74
2024/01/27 20:27:52;;;;;;;;;70.33;54.33;;;;;;;;5071531;28;8838;-76
2024/01/27 20:30:19;;;;;;;;;69.00;49.00;;;;;;;;5069748;28;8814;-74
2024/01/27 20:32:44;;;;;;;;;72.33;56.67;;;;;;;;5071172;28;8786;-79
2024/01/27 20:35:10;;;;;;;;;68.33;54.33;;;;;;;;5071488;28;8786;-75
2024/01/27 20:37:36;;;;;;;;;68.00;54.33;;;;;;;;5071658;28;8794;-74
2024/01/27 20:40:01;;;;;;;;;71.33;57.67;;;;;;;;5071400;28;8787;-74
2024/01/27 20:42:28;;;;;;;;;63.00;52.00;;;;;;;;5071455;28;8779;-73
2024/01/27 20:44:53;;;;;;;;;68.00;55.67;;;;;;;;5071505;28;9553;-75
2024/01/27 20:47:19;;;;;;;;;62.00;51.00;;;;;;;;5071024;28;8822;-75
2024/01/27 20:49:44;;;;;;;;;63.67;53.00;;;;;;;;5069641;28;8822;-75
2024/01/27 20:52:10;;;;;;;;;68.33;52.00;;;;;;;;5069871;28;9637;-75
2024/01/27 20:54:36;;;;;;;;;68.00;53.67;;;;;;;;5069663;28;8822;-76
2024/01/27 20:57:02;;;;;;;;;66.00;53.00;;;;;;;;5071138;28;8806;-76
2024/01/27 20:59:27;;;;;;;;;64.00;51.00;;;;;;;;5069621;28;8880;-76
2024/01/27 21:01:53;;;;;;;;;62.00;49.67;;;;;;;;5070903;28;8795;-76
2024/01/27 21:04:20;;;;;;;;;63.33;51.00;;;;;;;;5070714;28;8833;-76
2024/01/27 21:06:46;;;;;;;;;60.67;50.33;;;;;;;;5070767;28;8838;-77
2024/01/27 21:09:11;;;;;;;;;60.67;50.33;;;;;;;;5070613;28;8808;-77
2024/01/27 21:11:36;;;;;;;;;67.33;53.00;;;;;;;;5070744;28;8795;-78
2024/01/27 21:14:04;;;;;;;;;62.33;52.00;;;;;;;;5070329;28;8833;-74
2024/01/27 21:16:30;;;;;;;;;60.67;49.33;;;;;;;;5070329;28;8822;-76
2024/01/27 21:18:55;;;;;;;;;59.00;49.00;;;;;;;;5070346;28;8842;-77
2024/01/27 21:21:20;;;;;;;;;56.67;46.00;;;;;;;;5069220;28;8919;-76
2024/01/27 21:23:46;;;;;;;;;63.00;50.33;;;;;;;;5070446;28;8806;-76
2024/01/27 21:26:12;;;;;;;;;62.67;49.67;;;;;;;;5070591;28;8794;-76
2024/01/27 21:28:38;;;;;;;;;57.33;48.00;;;;;;;;5070686;28;8778;-76
2024/01/27 21:31:03;;;;;;;;;61.67;49.00;;;;;;;;5069249;28;8806;-76
2024/01/27 21:33:28;;;;;;;;;53.33;46.00;;;;;;;;5070624;28;8908;-76
2024/01/27 21:35:54;;;;;;;;;68.00;53.33;;;;;;;;5070409;28;9598;-75
2024/01/27 21:38:19;;;;;;;;;62.33;51.00;;;;;;;;5070516;28;8810;-75
2024/01/27 21:40:44;;;;;;;;;66.33;53.33;;;;;;;;5069283;28;9422;-75
2024/01/27 21:43:10;;;;;;;;;64.67;52.67;;;;;;;;5070520;28;8783;-75
2024/01/27 21:45:36;;;;;;;;;66.67;52.67;;;;;;;;5070542;28;8818;-76
2024/01/27 21:48:05;;;;;;;;;58.67;49.33;;;;;;;;5069048;28;8953;-77
2024/01/27 21:50:34;;;;;;;;;57.67;50.00;;;;;;;;5070311;28;8786;-76
2024/01/27 21:53:00;;;;;;;;;66.67;51.67;;;;;;;;5070361;28;8803;-77
2024/01/27 21:55:25;;;;;;;;;70.67;53.00;;;;;;;;5070379;28;9591;-77
2024/01/27 21:57:50;;;;;;;;;67.00;54.67;;;;;;;;5070456;28;8888;-77
2024/01/27 22:00:16;;;;;;;;;73.00;55.67;;;;;;;;5070295;28;8807;-77
2024/01/27 22:02:42;;;;;;;;;71.67;57.00;;;;;;;;5070483;28;8821;-76
2024/01/27 22:05:10;;;;;;;;;62.67;52.67;;;;;;;;5068823;28;8833;-77
2024/01/27 22:07:35;;;;;;;;;64.00;52.00;;;;;;;;5068965;28;8842;-76
2024/01/27 22:10:00;;;;;;;;;63.67;50.00;;;;;;;;5069016;28;8904;-77
2024/01/27 22:12:26;;;;;;;;;70.00;50.67;;;;;;;;5070369;28;8907;-77
2024/01/27 22:14:52;;;;;;;;;40.00;35.67;;;;;;;;5070118;28;8794;-76
2024/01/27 22:17:18;;;;;;;;;51.67;45.00;;;;;;;;5070174;28;9710;-77
2024/01/27 22:19:43;;;;;;;;;60.00;47.33;;;;;;;;5070038;28;8925;-77
2024/01/27 22:22:08;;;;;;;;;53.33;45.33;;;;;;;;5070002;28;9068;-77
2024/01/27 22:24:34;;;;;;;;;52.33;40.67;;;;;;;;5070053;28;8783;-77
2024/01/27 22:27:00;;;;;;;;;59.00;49.33;;;;;;;;5070175;28;9563;-76
2024/01/27 22:29:28;;;;;;;;;51.33;45.00;;;;;;;;5070258;28;8825;-77
2024/01/27 22:31:54;;;;;;;;;56.33;46.33;;;;;;;;5070077;28;9002;-77
2024/01/27 22:34:19;;;;;;;;;47.00;39.33;;;;;;;;5070037;28;8795;-77
2024/01/27 22:36:45;;;;;;;;;48.67;43.67;;;;;;;;5070009;28;8806;-76
2024/01/27 22:39:11;;;;;;;;;51.67;46.33;;;;;;;;5069969;28;8909;-77
2024/01/27 22:41:36;;;;;;;;;48.33;43.33;;;;;;;;5070141;28;8786;-76
2024/01/27 22:44:02;;;;;;;;;37.33;30.33;;;;;;;;5069836;28;8806;-76
2024/01/27 22:46:27;;;;;;;;;51.33;43.33;;;;;;;;5069840;28;8819;-76
2024/01/27 22:48:52;;;;;;;;;57.00;47.00;;;;;;;;5068669;28;8831;-76
2024/01/27 22:51:18;;;;;;;;;46.67;43.67;;;;;;;;5070026;28;8771;-79
2024/01/27 22:53:43;;;;;;;;;44.00;41.00;;;;;;;;5067592;28;8818;-77
2024/01/27 22:56:09;;;;;;;;;51.33;44.67;;;;;;;;5072383;28;8782;-77
2024/01/27 22:58:34;;;;;;;;;47.67;43.00;;;;;;;;5071251;28;8814;-77
2024/01/27 23:01:00;;;;;;;;;43.67;36.33;;;;;;;;5072878;28;8875;-78
2024/01/27 23:03:25;;;;;;;;;59.00;42.00;;;;;;;;5072633;28;8909;-77
2024/01/27 23:05:50;;;;;;;;;52.00;41.67;;;;;;;;5072323;28;8815;-76
2024/01/27 23:08:15;;;;;;;;;49.67;40.00;;;;;;;;5072646;28;8961;-76
2024/01/27 23:10:42;;;;;;;;;48.00;43.33;;;;;;;;5073245;28;8829;-77
2024/01/27 23:13:08;;;;;;;;;51.67;45.00;;;;;;;;5073252;28;8790;-77
2024/01/27 23:15:33;;;;;;;;;47.00;42.33;;;;;;;;5072906;28;8864;-77
2024/01/27 23:18:00;;;;;;;;;50.67;36.00;;;;;;;;5073087;28;8842;-77
2024/01/27 23:20:25;;;;;;;;;39.33;34.67;;;;;;;;5073149;28;8913;-77
2024/01/27 23:22:50;;;;;;;;;45.00;39.00;;;;;;;;5072999;28;8925;-77
2024/01/27 23:25:16;;;;;;;;;50.33;43.00;;;;;;;;5071601;28;8822;-77
2024/01/27 23:27:41;;;;;;;;;44.67;40.67;;;;;;;;5071610;28;8822;-77
2024/01/27 23:30:07;;;;;;;;;42.67;38.33;;;;;;;;5073275;28;8787;-77
2024/01/27 23:32:33;;;;;;;;;52.00;41.67;;;;;;;;5073179;28;8783;-77
2024/01/27 23:34:58;;;;;;;;;57.33;44.67;;;;;;;;5072637;28;8782;-77
2024/01/27 23:37:24;;;;;;;;;55.00;44.67;;;;;;;;5072823;28;9532;-77
2024/01/27 23:39:49;;;;;;;;;47.33;41.33;;;;;;;;5072785;28;8787;-78
2024/01/27 23:42:14;;;;;;;;;51.67;45.00;;;;;;;;5072764;28;8782;-77
2024/01/27 23:44:40;;;;;;;;;52.33;44.33;;;;;;;;5072750;28;8778;-77
2024/01/27 23:47:05;;;;;;;;;62.00;49.00;;;;;;;;5072671;28;8842;-76
2024/01/27 23:49:30;;;;;;;;;57.00;47.00;;;;;;;;5072552;28;8814;-77
